Time;durP1;ratioP1;P1;durP2;ratioP2;P2;SDS_P1;SDS_P2;PMS_P1;PMS_P2;Temp;Humidity;BMP_temperature;BMP_pressure;BME280_temperature;BME280_humidity;BME280_pressure;Samples;Min_cycle;Max_cycle;Signal;HPM_P1;HPM_P2
2022/06/22 00:01:52;;;;;;;;;;;13.70;98.70;;;;;;5036409;28;19928;-75
2022/06/22 00:04:28;;;;;;;;;;;13.70;98.60;;;;;;5019987;28;20340;-75
2022/06/22 00:06:58;;;;;;;;;;;13.70;98.70;;;;;;5019199;28;20082;-75
2022/06/22 00:09:29;;;;;;;;;;;13.60;99.10;;;;;;5036940;28;20256;-75
2022/06/22 00:11:58;;;;;;;;;;;13.60;98.90;;;;;;5036946;28;19928;-75
2022/06/22 00:14:29;;;;;;;;;;;13.60;98.80;;;;;;5035807;28;19932;-75
2022/06/22 00:16:56;;;;;;;;;;;13.60;98.90;;;;;;5019499;28;19996;-76
2022/06/22 00:19:32;;;;;;;;;;;13.50;98.10;;;;;;5036831;28;20378;-75
2022/06/22 00:22:00;;;;;;;;;;;13.50;98.20;;;;;;5036790;28;20248;-75
2022/06/22 00:24:27;;;;;;;;;;;13.40;98.50;;;;;;5019594;28;20363;-75
2022/06/22 00:26:57;;;;;;;;;;;13.50;99.90;;;;;;5035806;28;20344;-76
2022/06/22 00:29:34;;;;;;;;;;;13.40;99.50;;;;;;5036836;28;19924;-75
2022/06/22 00:32:14;;;;;;;;;;;13.40;99.50;;;;;;5036671;28;19932;-75
2022/06/22 00:34:41;;;;;;;;;;;13.30;99.80;;;;;;5035702;28;20379;-75
2022/06/22 00:37:17;;;;;;;;;;;13.30;99.90;;;;;;5019293;28;19921;-75
2022/06/22 00:39:46;;;;;;;;;;;13.30;99.70;;;;;;5018166;28;20081;-76
2022/06/22 00:42:32;;;;;;;;;;;13.00;99.90;;;;;;5019712;28;19921;-76
2022/06/22 00:45:01;;;;;;;;;;;13.20;99.90;;;;;;5036683;28;19928;-76
2022/06/22 00:47:37;;;;;;;;;;;13.20;99.90;;;;;;5018229;28;19928;-75
2022/06/22 00:50:04;;;;;;;;;;;13.10;99.90;;;;;;5036220;28;19921;-76
2022/06/22 00:52:37;;;;;;;;;;;13.10;99.90;;;;;;5036702;28;20328;-75
2022/06/22 00:55:14;;;;;;;;;;;13.20;99.90;;;;;;5035086;28;19921;-75
2022/06/22 00:57:46;;;;;;;;;;;13.10;99.90;;;;;;5036116;28;19921;-76
2022/06/22 01:00:16;;;;;;;;;;;13.00;99.90;;;;;;5035094;28;19932;-75
2022/06/22 01:03:03;;;;;;;;;;;13.00;99.90;;;;;;5036301;28;19921;-76
2022/06/22 01:05:46;;;;;;;;;;;13.00;99.90;;;;;;5035909;28;20263;-75
2022/06/22 01:08:21;;;;;;;;;;;13.00;99.90;;;;;;5034930;28;19928;-75
2022/06/22 01:10:57;;;;;;;;;;;13.00;99.90;;;;;;5035457;28;19921;-75
2022/06/22 01:13:28;;;;;;;;;;;13.00;99.90;;;;;;5034734;28;19928;-75
2022/06/22 01:15:58;;;;;;;;;;;13.00;99.90;;;;;;5036030;28;19940;-75
2022/06/22 01:18:31;;;;;;;;;;;13.00;99.90;;;;;;5018975;28;19936;-75
2022/06/22 01:21:04;;;;;;;;;;;12.90;99.90;;;;;;5034589;28;19921;-76
2022/06/22 01:23:32;;;;;;;;;;;12.90;99.90;;;;;;5018474;28;19921;-75
2022/06/22 01:26:18;;;;;;;;;;;12.80;99.90;;;;;;5035543;28;19921;-75
2022/06/22 01:29:11;;;;;;;;;;;12.80;99.90;;;;;;5035679;28;20236;-75
2022/06/22 01:31:59;;;;;;;;;;;12.70;99.90;;;;;;5015635;28;20378;-76
2022/06/22 01:34:39;;;;;;;;;;;12.70;99.90;;;;;;5017149;28;20275;-75
2022/06/22 01:37:11;;;;;;;;;;;12.70;99.90;;;;;;5018842;28;19925;-75
2022/06/22 01:39:39;;;;;;;;;;;12.60;99.90;;;;;;5034521;28;19921;-75
2022/06/22 01:42:13;;;;;;;;;;;12.60;99.90;;;;;;5035599;28;19925;-75
2022/06/22 01:44:46;;;;;;;;;;;12.60;99.90;;;;;;5018004;28;20374;-75
2022/06/22 01:47:34;;;;;;;;;;;12.50;99.90;;;;;;5034189;28;19924;-75
2022/06/22 01:50:01;;;;;;;;;;;12.50;99.90;;;;;;5022036;28;19932;-75
2022/06/22 01:52:32;;;;;;;;;;;12.50;99.90;;;;;;5018134;28;19928;-75
2022/06/22 01:55:03;;;;;;;;;;;12.50;99.90;;;;;;5034181;28;19921;-76
2022/06/22 01:57:45;;;;;;;;;;;12.50;99.90;;;;;;5035100;28;19928;-75
2022/06/22 02:00:19;;;;;;;;;;;12.40;99.90;;;;;;5016979;28;20320;-75
2022/06/22 02:02:52;;;;;;;;;;;12.40;99.90;;;;;;5018181;28;20248;-75
2022/06/22 02:05:26;;;;;;;;;;;12.30;99.90;;;;;;5035260;28;19925;-75
2022/06/22 02:07:59;;;;;;;;;;;12.30;99.90;;;;;;5034084;28;20271;-75
2022/06/22 02:10:45;;;;;;;;;;;12.20;99.90;;;;;;5017829;28;19932;-75
2022/06/22 02:13:13;;;;;;;;;;;12.20;99.90;;;;;;5033978;28;19921;-75
2022/06/22 02:15:40;;;;;;;;;;;12.20;99.90;;;;;;5034890;28;20347;-76
2022/06/22 02:18:20;;;;;;;;;;;12.10;99.90;;;;;;5034929;28;19924;-75
2022/06/22 02:20:48;;;;;;;;;;;12.10;99.90;;;;;;5034221;28;20343;-75
2022/06/22 02:23:18;;;;;;;;;;;12.10;99.90;;;;;;5039589;28;20358;-75
2022/06/22 02:25:51;;;;;;;;;;;12.00;99.90;;;;;;5021480;28;19932;-75
2022/06/22 02:28:19;;;;;;;;;;;12.00;99.90;;;;;;5038026;28;19928;-75
2022/06/22 02:30:46;;;;;;;;;;;11.90;99.90;;;;;;5021498;28;19921;-75
2022/06/22 02:33:15;;;;;;;;;;;11.90;99.90;;;;;;5020509;28;19932;-75
2022/06/22 02:35:42;;;;;;;;;;;11.80;99.90;;;;;;5038901;28;20010;-75
2022/06/22 02:38:11;;;;;;;;;;;11.70;99.90;;;;;;5038955;28;19920;-75
2022/06/22 02:46:16;;;;;;;;;;;11.70;99.90;;;;;;5037577;28;19928;-76
2022/06/22 02:48:45;;;;;;;;;;;11.70;99.90;;;;;;5038785;28;20363;-75
2022/06/22 02:51:13;;;;;;;;;;;11.60;99.90;;;;;;5038624;28;19932;-75
2022/06/22 02:53:41;;;;;;;;;;;11.60;99.90;;;;;;5020464;28;19921;-75
2022/06/22 02:56:13;;;;;;;;;;;11.60;99.90;;;;;;5038809;28;19928;-75
2022/06/22 02:58:41;;;;;;;;;;;11.60;99.90;;;;;;5038324;28;19928;-75
2022/06/22 03:01:12;;;;;;;;;;;11.60;99.90;;;;;;5037209;28;19921;-75
2022/06/22 03:03:41;;;;;;;;;;;11.50;99.90;;;;;;5038180;28;19932;-75
2022/06/22 03:06:10;;;;;;;;;;;11.50;99.90;;;;;;5019808;28;19921;-75
2022/06/22 03:08:38;;;;;;;;;;;11.50;99.90;;;;;;5038412;28;19932;-75
2022/06/22 03:11:06;;;;;;;;;;;11.40;99.90;;;;;;5020481;28;19931;-75
2022/06/22 03:13:34;;;;;;;;;;;11.30;99.90;;;;;;5019814;28;19932;-75
2022/06/22 03:16:01;;;;;;;;;;;11.40;99.90;;;;;;5038177;28;20267;-75
2022/06/22 03:18:30;;;;;;;;;;;11.30;99.90;;;;;;5038047;28;19921;-75
2022/06/22 03:21:02;;;;;;;;;;;11.30;99.90;;;;;;5036785;28;19924;-75
2022/06/22 03:23:44;;;;;;;;;;;11.30;99.90;;;;;;5037964;28;19928;-75
2022/06/22 03:26:19;;;;;;;;;;;11.30;99.90;;;;;;5036848;28;20360;-75
2022/06/22 03:28:50;;;;;;;;;;;11.20;99.90;;;;;;5021335;28;19928;-75
2022/06/22 03:31:22;;;;;;;;;;;11.20;99.90;;;;;;5038320;28;19925;-75
2022/06/22 03:33:53;;;;;;;;;;;11.10;99.90;;;;;;5036413;28;19921;-75
2022/06/22 03:36:29;;;;;;;;;;;11.10;99.90;;;;;;5020806;28;19921;-75
2022/06/22 03:39:00;;;;;;;;;;;11.10;99.90;;;;;;5037583;28;19937;-75
2022/06/22 03:41:31;;;;;;;;;;;11.00;99.90;;;;;;5036690;28;19928;-75
2022/06/22 03:44:20;;;;;;;;;;;11.00;99.90;;;;;;5037750;28;19929;-75
2022/06/22 03:46:47;;;;;;;;;;;11.00;99.90;;;;;;5036514;28;19924;-75
2022/06/22 03:49:17;;;;;;;;;;;11.00;99.90;;;;;;5037565;28;19921;-75
2022/06/22 03:51:54;;;;;;;;;;;11.00;99.90;;;;;;5037986;28;19988;-75
2022/06/22 03:54:28;;;;;;;;;;;11.00;99.90;;;;;;5019343;28;19921;-75
2022/06/22 03:56:58;;;;;;;;;;;11.00;99.90;;;;;;5020053;28;19921;-75
2022/06/22 03:59:26;;;;;;;;;;;11.00;99.90;;;;;;5036648;28;19921;-75
2022/06/22 04:01:55;;;;;;;;;;;11.00;99.90;;;;;;5037353;28;19921;-75
2022/06/22 04:04:24;;;;;;;;;;;11.00;99.90;;;;;;5020446;28;19921;-75
2022/06/22 04:06:53;;;;;;;;;;;10.90;99.90;;;;;;5036138;28;19921;-75
2022/06/22 04:09:21;;;;;;;;;;;10.90;99.90;;;;;;5019785;28;19921;-75
2022/06/22 04:11:57;;;;;;;;;;;11.00;99.90;;;;;;5036912;28;19921;-75
2022/06/22 04:14:27;;;;;;;;;;;11.00;99.90;;;;;;5035794;28;19928;-75
2022/06/22 04:17:15;;;;;;;;;;;11.00;99.90;;;;;;5019825;28;19932;-76
2022/06/22 04:19:46;;;;;;;;;;;10.90;99.90;;;;;;5022640;28;19921;-75
2022/06/22 04:22:16;;;;;;;;;;;11.00;99.90;;;;;;5019641;28;19928;-76
2022/06/22 04:24:49;;;;;;;;;;;11.00;99.90;;;;;;5036858;28;19932;-75
2022/06/22 04:27:20;;;;;;;;;;;11.00;99.90;;;;;;5018377;28;19921;-75
2022/06/22 04:29:53;;;;;;;;;;;11.00;99.90;;;;;;5036800;28;19928;-75
2022/06/22 04:32:23;;;;;;;;;;;11.00;99.90;;;;;;5036594;28;19928;-76
2022/06/22 04:34:58;;;;;;;;;;;11.00;99.90;;;;;;5035766;28;19928;-75
2022/06/22 04:37:34;;;;;;;;;;;11.00;99.90;;;;;;5019411;28;20275;-75
2022/06/22 04:40:20;;;;;;;;;;;11.00;99.90;;;;;;5035347;28;19921;-75
2022/06/22 04:42:50;;;;;;;;;;;11.00;99.90;;;;;;5019368;28;19921;-75
2022/06/22 04:45:31;;;;;;;;;;;11.10;99.90;;;;;;5035309;28;19932;-75
2022/06/22 04:48:25;;;;;;;;;;;11.00;99.90;;;;;;5035493;28;19921;-75
2022/06/22 04:50:57;;;;;;;;;;;11.00;99.90;;;;;;4989907;28;19921;-76
2022/06/22 04:53:33;;;;;;;;;;;11.10;99.90;;;;;;5018105;28;19921;-76
2022/06/22 04:56:03;;;;;;;;;;;11.10;99.90;;;;;;5018920;28;19928;-75
2022/06/22 04:58:41;;;;;;;;;;;11.20;99.90;;;;;;5036278;28;19944;-75
2022/06/22 05:01:33;;;;;;;;;;;11.20;99.90;;;;;;5035209;28;19924;-75
2022/06/22 05:04:05;;;;;;;;;;;11.30;99.90;;;;;;5026763;28;19928;-75
2022/06/22 05:06:46;;;;;;;;;;;11.40;99.90;;;;;;5034814;28;19921;-76
2022/06/22 05:09:30;;;;;;;;;;;11.50;99.90;;;;;;5019097;28;19921;-75
2022/06/22 05:11:59;;;;;;;;;;;11.50;99.90;;;;;;5036051;28;19928;-75
2022/06/22 05:14:31;;;;;;;;;;;12.20;99.90;;;;;;5001316;28;20356;-75
2022/06/22 05:17:01;;;;;;;;;;;11.60;99.90;;;;;;5035711;28;19925;-75
2022/06/22 05:19:39;;;;;;;;;;;11.60;99.90;;;;;;5017876;28;19920;-75
2022/06/22 05:22:13;;;;;;;;;;;11.70;99.90;;;;;;5035976;28;20382;-75
2022/06/22 05:24:44;;;;;;;;;;;11.70;99.90;;;;;;5018363;28;19921;-75
2022/06/22 05:27:14;;;;;;;;;;;11.70;99.90;;;;;;5017193;28;19935;-75
2022/06/22 05:29:45;;;;;;;;;;;11.80;99.90;;;;;;5036087;28;19921;-76
2022/06/22 05:32:15;;;;;;;;;;;11.90;99.90;;;;;;5036071;28;19921;-75
2022/06/22 05:34:44;;;;;;;;;;;11.90;99.90;;;;;;5034516;28;19936;-75
2022/06/22 05:37:15;;;;;;;;;;;12.00;99.90;;;;;;5035433;28;19921;-76
2022/06/22 05:39:42;;;;;;;;;;;12.00;99.90;;;;;;5016992;28;19932;-76
2022/06/22 05:42:10;;;;;;;;;;;12.10;99.90;;;;;;5035485;28;19930;-76
2022/06/22 05:44:38;;;;;;;;;;;11.60;99.90;;;;;;5035404;28;19921;-75
2022/06/22 05:47:05;;;;;;;;;;;12.20;99.90;;;;;;5034099;28;19921;-76
2022/06/22 05:49:35;;;;;;;;;;;12.30;99.90;;;;;;5018074;28;19921;-77
2022/06/22 05:52:03;;;;;;;;;;;12.40;99.90;;;;;;5035347;28;19932;-76
2022/06/22 05:54:39;;;;;;;;;;;12.50;99.90;;;;;;5034287;28;20332;-76
2022/06/22 05:57:23;;;;;;;;;;;12.60;99.90;;;;;;5018440;28;19928;-75
2022/06/22 06:00:00;;;;;;;;;;;12.70;99.90;;;;;;5034217;28;19920;-76
2022/06/22 06:02:38;;;;;;;;;;;12.80;99.90;;;;;;5017955;28;19921;-75
2022/06/22 06:05:28;;;;;;;;;;;12.90;99.90;;;;;;5018540;28;19935;-76
2022/06/22 06:07:57;;;;;;;;;;;12.90;99.90;;;;;;5034248;28;20347;-77
2022/06/22 06:10:33;;;;;;;;;;;13.10;99.90;;;;;;5017917;28;20371;-77
2022/06/22 06:13:06;;;;;;;;;;;13.10;99.90;;;;;;5033727;28;19954;-76
2022/06/22 06:15:35;;;;;;;;;;;13.20;99.90;;;;;;5001485;28;19921;-76
2022/06/22 06:18:03;;;;;;;;;;;13.30;99.90;;;;;;5034831;28;20267;-76
2022/06/22 06:20:38;;;;;;;;;;;13.40;99.90;;;;;;5016781;28;19921;-75
2022/06/22 06:23:08;;;;;;;;;;;13.40;99.90;;;;;;5035052;28;19921;-76
2022/06/22 06:28:33;;;;;;;;;;;13.60;99.90;;;;;;5033727;28;19938;-76
2022/06/22 06:31:17;;;;;;;;;;;13.70;99.90;;;;;;5017704;28;19921;-76
2022/06/22 06:33:44;;;;;;;;;;;13.80;99.90;;;;;;5033830;28;19928;-74
2022/06/22 06:36:12;;;;;;;;;;;13.90;99.90;;;;;;5016858;28;19920;-84
2022/06/22 06:38:53;;;;;;;;;;;13.80;99.90;;;;;;5017127;28;19932;-80
2022/06/22 06:41:26;;;;;;;;;;;14.00;99.90;;;;;;5033650;28;19921;-81
2022/06/22 06:43:53;;;;;;;;;;;13.90;99.90;;;;;;5017762;28;19932;-78
2022/06/22 06:46:26;;;;;;;;;;;14.20;99.90;;;;;;5033437;28;19921;-78
2022/06/22 06:49:07;;;;;;;;;;;14.30;99.90;;;;;;5035098;28;19928;-77
2022/06/22 06:51:35;;;;;;;;;;;14.40;99.90;;;;;;5018045;28;20248;-78
2022/06/22 06:54:21;;;;;;;;;;;14.50;99.90;;;;;;5015379;28;19920;-78
2022/06/22 06:56:48;;;;;;;;;;;14.60;99.90;;;;;;5033822;28;19928;-76
2022/06/22 06:59:19;;;;;;;;;;;14.70;99.90;;;;;;5034241;28;19921;-76
2022/06/22 07:01:46;;;;;;;;;;;14.80;99.90;;;;;;5016032;28;19932;-75
2022/06/22 07:04:21;;;;;;;;;;;14.90;99.90;;;;;;5034350;28;19921;-75
2022/06/22 07:06:48;;;;;;;;;;;15.20;99.90;;;;;;5033391;28;20366;-76
2022/06/22 07:09:31;;;;;;;;;;;15.20;99.90;;;;;;5037603;28;19928;-76
2022/06/22 07:12:17;;;;;;;;;;;15.30;99.90;;;;;;5037942;28;19925;-77
2022/06/22 07:14:45;;;;;;;;;;;15.30;99.90;;;;;;5036741;28;19921;-76
2022/06/22 07:17:17;;;;;;;;;;;15.40;99.90;;;;;;5037807;28;19928;-77
2022/06/22 07:19:46;;;;;;;;;;;15.40;99.90;;;;;;5003190;28;20081;-76
2022/06/22 07:22:18;;;;;;;;;;;15.60;99.90;;;;;;5020060;28;20234;-76
2022/06/22 07:24:51;;;;;;;;;;;15.70;99.90;;;;;;5036670;28;20356;-77
2022/06/22 07:27:24;;;;;;;;;;;15.80;99.90;;;;;;5019082;28;19928;-76
2022/06/22 07:29:56;;;;;;;;;;;15.80;99.90;;;;;;5037482;28;19921;-76
2022/06/22 07:32:40;;;;;;;;;;;15.80;99.90;;;;;;5037504;28;19928;-78
2022/06/22 07:35:16;;;;;;;;;;;16.00;99.90;;;;;;5019212;28;19921;-79
2022/06/22 07:37:59;;;;;;;;;;;16.20;99.90;;;;;;5038087;28;19921;-79
2022/06/22 07:40:27;;;;;;;;;;;16.20;99.90;;;;;;5036628;28;19928;-78
2022/06/22 07:42:55;;;;;;;;;;;16.30;99.90;;;;;;5020492;28;19920;-75
2022/06/22 07:45:24;;;;;;;;;;;16.40;99.90;;;;;;5037392;28;20344;-78
2022/06/22 07:48:12;;;;;;;;;;;16.40;99.90;;;;;;5036468;28;20243;-76
2022/06/22 07:50:43;;;;;;;;;;;16.50;99.90;;;;;;5020544;28;19944;-78
2022/06/22 07:53:23;;;;;;;;;;;16.60;99.90;;;;;;5036150;28;19921;-75
2022/06/22 07:55:56;;;;;;;;;;;16.70;99.90;;;;;;5020362;28;19932;-78
2022/06/22 07:58:26;;;;;;;;;;;16.70;99.90;;;;;;5037395;28;19921;-76
2022/06/22 08:00:58;;;;;;;;;;;16.70;99.90;;;;;;5036180;28;19921;-75
2022/06/22 08:03:26;;;;;;;;;;;16.90;96.40;;;;;;5037181;28;19921;-77
2022/06/22 08:05:56;;;;;;;;;;;17.00;95.00;;;;;;5019645;28;19932;-76
2022/06/22 08:08:30;;;;;;;;;;;17.00;95.40;;;;;;5036497;28;19928;-74
2022/06/22 08:10:58;;;;;;;;;;;17.20;94.90;;;;;;5037178;28;19927;-74
2022/06/22 08:13:29;;;;;;;;;;;17.20;95.30;;;;;;5054590;28;20003;-74
2022/06/22 08:15:59;;;;;;;;;;;17.20;95.40;;;;;;5057215;28;19920;-76
2022/06/22 08:18:27;;;;;;;;;;;17.40;95.00;;;;;;5056786;28;19921;-78
2022/06/22 08:20:57;;;;;;;;;;;17.40;94.70;;;;;;5055075;28;19932;-66
2022/06/22 08:23:26;;;;;;;;;;;17.50;95.00;;;;;;5057074;28;19927;-76
2022/06/22 08:26:00;;;;;;;;;;;17.70;95.30;;;;;;5040320;28;19924;-75
2022/06/22 08:28:29;;;;;;;;;;;17.80;92.80;;;;;;5056520;28;19921;-75
2022/06/22 08:30:57;;;;;;;;;;;17.90;92.50;;;;;;5056946;28;19921;-74
2022/06/22 08:33:34;;;;;;;;;;;17.90;92.60;;;;;;5054825;28;19931;-75
2022/06/22 08:36:04;;;;;;;;;;;18.00;92.90;;;;;;5057328;28;19921;-75
2022/06/22 08:38:36;;;;;;;;;;;18.10;92.10;;;;;;5057207;28;19921;-75
2022/06/22 08:41:23;;;;;;;;;;;18.10;92.20;;;;;;5054557;28;19924;-75
2022/06/22 08:44:10;;;;;;;;;;;18.20;91.00;;;;;;5056596;28;19921;-75
2022/06/22 08:46:38;;;;;;;;;;;18.20;91.50;;;;;;5055061;28;19928;-76
2022/06/22 08:49:24;;;;;;;;;;;18.30;91.30;;;;;;5057016;28;20343;-76
2022/06/22 08:51:59;;;;;;;;;;;18.40;90.60;;;;;;5056811;28;19928;-77
2022/06/22 08:54:26;;;;;;;;;;;18.60;91.00;;;;;;5055769;28;19921;-75
2022/06/22 08:57:07;;;;;;;;;;;18.60;90.90;;;;;;5056007;28;19920;-77
2022/06/22 09:00:03;;;;;;;;;;;18.80;90.20;;;;;;5055164;28;19924;-75
2022/06/22 09:02:41;;;;;;;;;;;18.90;90.00;;;;;;5041145;28;20327;-76
2022/06/22 09:05:22;;;;;;;;;;;19.00;87.50;;;;;;5055914;28;19921;-76
2022/06/22 09:08:08;;;;;;;;;;;19.10;86.90;;;;;;5055002;28;19921;-75
2022/06/22 09:10:35;;;;;;;;;;;19.20;86.70;;;;;;5055962;28;19921;-75
2022/06/22 09:13:22;;;;;;;;;;;19.20;87.30;;;;;;5038910;28;19921;-75
2022/06/22 09:16:08;;;;;;;;;;;19.30;87.50;;;;;;5019427;28;19921;-74
2022/06/22 09:18:35;;;;;;;;;;;19.40;85.70;;;;;;5036513;28;20232;-76
2022/06/22 09:21:26;;;;;;;;;;;19.40;85.70;;;;;;5035436;28;20236;-75
2022/06/22 09:24:04;;;;;;;;;;;19.60;84.80;;;;;;5036241;28;19921;-75
2022/06/22 09:26:54;;;;;;;;;;;19.70;83.50;;;;;;5034859;28;19920;-75
2022/06/22 09:29:40;;;;;;;;;;;19.80;82.90;;;;;;5027362;28;19929;-76
2022/06/22 09:32:13;;;;;;;;;;;19.90;82.00;;;;;;5031160;28;19932;-80
2022/06/22 09:34:58;;;;;;;;;;;20.00;82.50;;;;;;5017336;28;20363;-75
2022/06/22 09:37:25;;;;;;;;;;;20.10;82.20;;;;;;5015954;28;19932;-77
2022/06/22 09:40:05;;;;;;;;;;;20.20;81.80;;;;;;5014809;28;19921;-79
2022/06/22 09:42:48;;;;;;;;;;;20.20;82.00;;;;;;4998652;28;19933;-77
2022/06/22 09:45:34;;;;;;;;;;;20.30;81.50;;;;;;4982351;28;19932;-79
2022/06/22 09:48:08;;;;;;;;;;;20.30;81.20;;;;;;5020964;28;19921;-77
2022/06/22 09:50:42;;;;;;;;;;;20.40;81.80;;;;;;5035619;28;20243;-81
2022/06/22 09:53:16;;;;;;;;;;;20.50;78.80;;;;;;5001002;28;19928;-77
2022/06/22 09:56:20;;;;;;;;;;;20.60;78.30;;;;;;5035305;28;19921;-75
2022/06/22 09:58:48;;;;;;;;;;;20.70;77.20;;;;;;5035025;28;19921;-78
2022/06/22 10:01:34;;;;;;;;;;;20.70;77.50;;;;;;5016868;28;19921;-74
2022/06/22 10:04:26;;;;;;;;;;;20.70;78.30;;;;;;5035478;28;19920;-75
2022/06/22 10:07:09;;;;;;;;;;;20.80;79.00;;;;;;5033664;28;19932;-75
2022/06/22 10:10:07;;;;;;;;;;;20.80;78.40;;;;;;5035156;28;19928;-82
2022/06/22 10:12:55;;;;;;;;;;;20.90;77.50;;;;;;5019458;28;19921;-83
2022/06/22 10:15:26;;;;;;;;;;;20.90;79.00;;;;;;5006866;28;19921;-85
2022/06/22 10:18:00;;;;;;;;;;;21.80;79.50;;;;;;5034923;28;19921;-80
2022/06/22 10:20:48;;;;;;;;;;;21.00;79.90;;;;;;5016647;28;19921;-78
2022/06/22 10:23:44;;;;;;;;;;;21.10;79.20;;;;;;5034886;28;19925;-83
2022/06/22 10:26:12;;;;;;;;;;;21.20;79.70;;;;;;5017080;28;19921;-76
2022/06/22 10:28:57;;;;;;;;;;;21.30;77.20;;;;;;5028746;28;19940;-77
2022/06/22 10:31:37;;;;;;;;;;;21.30;76.60;;;;;;5026357;28;19928;-77
2022/06/22 10:34:24;;;;;;;;;;;21.40;76.70;;;;;;5000468;28;19921;-74
2022/06/22 10:37:05;;;;;;;;;;;21.50;74.30;;;;;;5034962;28;19921;-75
2022/06/22 10:39:41;;;;;;;;;;;21.60;72.20;;;;;;5016858;28;19944;-78
2022/06/22 10:45:26;;;;;;;;;;;21.70;71.20;;;;;;5038244;28;19921;-76
2022/06/22 10:48:09;;;;;;;;;;;21.80;69.60;;;;;;5037378;28;19936;-76
2022/06/22 10:50:55;;;;;;;;;;;21.90;71.20;;;;;;5035316;28;19921;-76
2022/06/22 10:53:22;;;;;;;;;;;21.90;68.90;;;;;;5001127;28;19928;-77
2022/06/22 10:56:17;;;;;;;;;;;22.00;68.20;;;;;;5018874;28;20343;-87
2022/06/22 10:58:53;;;;;;;;;;;22.00;68.20;;;;;;5003373;28;19948;-78
2022/06/22 11:01:33;;;;;;;;;;;22.10;69.40;;;;;;5018021;28;19933;-78
2022/06/22 11:04:07;;;;;;;;;;;22.20;66.40;;;;;;5018603;28;19931;-76
2022/06/22 11:06:37;;;;;;;;;;;22.30;67.10;;;;;;5000511;28;19993;-76
2022/06/22 11:09:17;;;;;;;;;;;22.40;68.00;;;;;;5001946;28;19932;-77
2022/06/22 11:11:47;;;;;;;;;;;23.20;68.10;;;;;;5018391;28;19921;-83
2022/06/22 11:14:30;;;;;;;;;;;22.50;68.40;;;;;;5002476;28;19921;-78
2022/06/22 11:17:16;;;;;;;;;;;22.50;68.30;;;;;;5018631;28;19921;-82
2022/06/22 11:19:44;;;;;;;;;;;22.50;68.70;;;;;;4984908;28;19983;-76
2022/06/22 11:22:15;;;;;;;;;;;22.60;68.40;;;;;;5018805;28;20363;-77
2022/06/22 11:25:02;;;;;;;;;;;22.70;68.80;;;;;;4993160;28;19932;-83
2022/06/22 11:33:22;;;;;;;;;;;22.90;68.70;;;;;;5017318;28;19921;-77
2022/06/22 11:35:53;;;;;;;;;;;22.90;69.50;;;;;;5000267;28;20367;-77
2022/06/22 11:38:28;;;;;;;;;;;22.90;69.50;;;;;;5018076;28;19921;-75
2022/06/22 11:41:11;;;;;;;;;;;22.90;71.30;;;;;;5017164;28;19928;-75
2022/06/22 11:43:59;;;;;;;;;;;22.90;70.60;;;;;;5023625;28;19928;-74
2022/06/22 11:46:30;;;;;;;;;;;22.90;69.70;;;;;;5039435;28;19924;-75
2022/06/22 11:48:58;;;;;;;;;;;23.00;71.00;;;;;;5034483;28;20243;-78
2022/06/22 11:51:55;;;;;;;;;;;23.10;70.50;;;;;;5036448;28;19920;-77
2022/06/22 11:54:42;;;;;;;;;;;23.10;71.00;;;;;;5016788;28;19948;-77
2022/06/22 11:57:15;;;;;;;;;;;23.20;70.50;;;;;;5037300;28;20339;-79
2022/06/22 12:00:01;;;;;;;;;;;23.20;69.70;;;;;;5036106;28;19920;-77
2022/06/22 12:02:47;;;;;;;;;;;23.20;70.10;;;;;;5036988;28;19928;-77
2022/06/22 12:05:31;;;;;;;;;;;23.20;70.70;;;;;;5036591;28;19928;-78
2022/06/22 12:07:59;;;;;;;;;;;23.20;70.10;;;;;;5035963;28;20336;-76
2022/06/22 12:10:35;;;;;;;;;;;23.30;71.30;;;;;;5019613;28;19921;-77
2022/06/22 12:13:13;;;;;;;;;;;23.80;71.30;;;;;;5048601;28;19931;-77
2022/06/22 12:15:40;;;;;;;;;;;23.40;70.70;;;;;;5056680;28;20347;-76
2022/06/22 12:18:21;;;;;;;;;;;23.40;71.70;;;;;;5056762;28;19928;-78
2022/06/22 12:20:50;;;;;;;;;;;23.50;71.80;;;;;;5055456;28;19921;-79
2022/06/22 12:23:21;;;;;;;;;;;23.50;71.80;;;;;;5056632;28;20343;-79
2022/06/22 12:26:08;;;;;;;;;;;23.50;71.50;;;;;;5056532;28;19921;-78
2022/06/22 12:28:48;;;;;;;;;;;23.50;71.90;;;;;;5056658;28;19921;-78
2022/06/22 12:31:17;;;;;;;;;;;23.60;71.60;;;;;;5056491;28;20275;-76
2022/06/22 12:33:52;;;;;;;;;;;23.60;71.10;;;;;;5055777;28;19920;-78
2022/06/22 12:36:20;;;;;;;;;;;23.70;71.10;;;;;;5056403;28;19921;-79
2022/06/22 12:38:50;;;;;;;;;;;23.80;72.30;;;;;;5039065;28;19920;-78
2022/06/22 12:41:48;;;;;;;;;;;23.80;72.60;;;;;;5055539;28;19939;-78
2022/06/22 12:44:27;;;;;;;;;;;23.80;72.10;;;;;;5056379;28;19921;-78
2022/06/22 12:46:58;;;;;;;;;;;23.80;72.00;;;;;;5054019;28;20267;-78
2022/06/22 12:49:28;;;;;;;;;;;23.80;71.80;;;;;;5056857;28;19932;-78
2022/06/22 12:52:12;;;;;;;;;;;23.80;72.40;;;;;;5056523;28;19928;-77
2022/06/22 12:54:44;;;;;;;;;;;23.90;72.40;;;;;;5055152;28;19928;-76
2022/06/22 12:57:24;;;;;;;;;;;24.00;72.20;;;;;;5056072;28;19932;-78
2022/06/22 12:59:57;;;;;;;;;;;24.40;71.90;;;;;;5054395;28;19920;-78
2022/06/22 13:02:27;;;;;;;;;;;24.10;72.20;;;;;;5056291;28;19921;-77
2022/06/22 13:05:01;;;;;;;;;;;24.20;71.50;;;;;;5055754;28;19921;-78
2022/06/22 13:07:28;;;;;;;;;;;24.20;70.90;;;;;;5054902;28;19931;-77
2022/06/22 13:09:56;;;;;;;;;;;24.10;70.30;;;;;;5055819;28;20350;-79
2022/06/22 13:12:41;;;;;;;;;;;24.30;71.10;;;;;;5044698;28;19921;-77
2022/06/22 13:15:27;;;;;;;;;;;24.40;70.90;;;;;;5017704;28;19928;-76
2022/06/22 13:18:06;;;;;;;;;;;24.40;69.80;;;;;;5035883;28;19921;-78
2022/06/22 13:20:39;;;;;;;;;;;24.40;69.70;;;;;;5035007;28;20370;-78
2022/06/22 13:23:06;;;;;;;;;;;24.50;69.80;;;;;;5035801;28;19928;-78
2022/06/22 13:25:44;;;;;;;;;;;24.30;69.50;;;;;;5035734;28;19928;-78
2022/06/22 13:28:11;;;;;;;;;;;25.30;69.50;;;;;;5034490;28;19921;-78
2022/06/22 13:30:43;;;;;;;;;;;26.70;67.00;;;;;;5035851;28;20251;-78
2022/06/22 13:33:17;;;;;;;;;;;27.80;65.00;;;;;;5034617;28;20267;-78
2022/06/22 13:36:01;;;;;;;;;;;28.80;63.10;;;;;;5002387;28;19921;-79
2022/06/22 13:38:46;;;;;;;;;;;29.60;62.20;;;;;;5035771;28;20268;-79
2022/06/22 13:41:17;;;;;;;;;;;30.30;60.50;;;;;;5017050;28;19921;-78
2022/06/22 13:43:44;;;;;;;;;;;30.60;59.40;;;;;;5018953;28;19921;-77
2022/06/22 13:46:31;;;;;;;;;;;30.90;59.80;;;;;;5017146;28;19920;-77
2022/06/22 13:49:00;;;;;;;;;;;31.20;57.50;;;;;;5035520;28;19921;-77
2022/06/22 13:51:40;;;;;;;;;;;31.20;57.80;;;;;;5035395;28;19920;-76
2022/06/22 13:54:27;;;;;;;;;;;31.90;57.80;;;;;;5017139;28;20280;-77
2022/06/22 13:57:07;;;;;;;;;;;32.50;56.40;;;;;;5035508;28;19921;-77
2022/06/22 13:59:40;;;;;;;;;;;33.10;55.50;;;;;;5017167;28;20279;-76
2022/06/22 14:02:08;;;;;;;;;;;33.20;55.20;;;;;;5035748;28;20346;-78
2022/06/22 14:04:39;;;;;;;;;;;33.70;55.30;;;;;;5035739;28;19921;-76
2022/06/22 14:07:16;;;;;;;;;;;33.90;54.00;;;;;;5034103;28;19921;-77
2022/06/22 14:09:51;;;;;;;;;;;33.70;53.90;;;;;;5035220;28;19925;-78
2022/06/22 14:12:35;;;;;;;;;;;34.00;53.80;;;;;;5035288;28;19928;-77
2022/06/22 14:15:28;;;;;;;;;;;34.40;53.20;;;;;;5033981;28;19932;-77
2022/06/22 14:18:16;;;;;;;;;;;34.40;52.80;;;;;;5024336;28;19928;-78
2022/06/22 14:21:01;;;;;;;;;;;34.30;52.60;;;;;;5007001;28;19932;-77
2022/06/22 14:23:34;;;;;;;;;;;34.30;53.20;;;;;;5042076;28;20358;-77
2022/06/22 14:26:20;;;;;;;;;;;34.30;52.70;;;;;;5041993;28;19940;-77
2022/06/22 14:29:14;;;;;;;;;;;34.60;52.60;;;;;;5024461;28;19921;-77
2022/06/22 14:32:07;;;;;;;;;;;35.00;51.80;;;;;;5020268;28;20271;-75
2022/06/22 14:34:53;;;;;;;;;;;35.10;51.70;;;;;;5003603;28;19928;-75
2022/06/22 14:37:26;;;;;;;;;;;34.80;51.40;;;;;;5024386;28;19928;-75
2022/06/22 14:39:58;;;;;;;;;;;34.90;51.40;;;;;;5023542;28;19944;-75
2022/06/22 14:42:57;;;;;;;;;;;34.70;52.00;;;;;;5028172;28;19929;-75
2022/06/22 14:45:33;;;;;;;;;;;34.50;51.70;;;;;;5041458;28;19928;-75
2022/06/22 14:48:24;;;;;;;;;;;34.40;51.30;;;;;;5040166;28;19921;-75
2022/06/22 14:50:55;;;;;;;;;;;34.10;52.10;;;;;;4996306;28;20271;-75
2022/06/22 14:53:22;;;;;;;;;;;33.80;52.30;;;;;;5040550;28;19944;-76
2022/06/22 14:55:52;;;;;;;;;;;34.10;53.40;;;;;;5041142;28;19928;-75
2022/06/22 14:58:26;;;;;;;;;;;34.10;52.30;;;;;;5041144;28;20359;-76
2022/06/22 15:00:58;;;;;;;;;;;34.00;52.40;;;;;;5040414;28;19925;-75
2022/06/22 15:03:49;;;;;;;;;;;33.90;52.30;;;;;;5024128;28;20351;-75
2022/06/22 15:06:23;;;;;;;;;;;34.20;52.40;;;;;;5022721;28;19921;-72
2022/06/22 15:09:19;;;;;;;;;;;34.20;51.90;;;;;;5041235;28;19925;-75
2022/06/22 15:14:47;;;;;;;;;;;35.00;51.40;;;;;;5020152;28;19921;-73
2022/06/22 15:17:33;;;;;;;;;;;35.00;51.20;;;;;;5021444;28;19944;-73
2022/06/22 15:20:07;;;;;;;;;;;35.00;50.60;;;;;;5020706;28;19928;-74
2022/06/22 15:22:42;;;;;;;;;;;34.90;51.50;;;;;;5021327;28;20265;-74
2022/06/22 15:25:34;;;;;;;;;;;35.40;51.00;;;;;;5021156;28;19929;-75